sensor_id;sensor_type;location;lat;lon;timestamp;P1;durP1;ratioP1;P2;durP2;ratioP2
9671;SDS011;4874;43.568;27.824;2022-09-30T00:01:12;10.23;;;6.53;;
9671;SDS011;4874;43.568;27.824;2022-09-30T00:03:39;9.63;;;5.95;;
9671;SDS011;4874;43.568;27.824;2022-09-30T00:06:06;7.82;;;5.25;;
9671;SDS011;4874;43.568;27.824;2022-09-30T00:08:37;10.30;;;5.53;;
9671;SDS011;4874;43.568;27.824;2022-09-30T00:13:37;6.82;;;5.22;;
9671;SDS011;4874;43.568;27.824;2022-09-30T00:16:05;11.48;;;6.15;;
9671;SDS011;4874;43.568;27.824;2022-09-30T00:18:32;8.75;;;5.38;;
9671;SDS011;4874;43.568;27.824;2022-09-30T00:20:59;9.23;;;6.10;;
9671;SDS011;4874;43.568;27.824;2022-09-30T00:23:26;10.48;;;6.30;;
9671;SDS011;4874;43.568;27.824;2022-09-30T00:25:57;11.32;;;6.45;;
9671;SDS011;4874;43.568;27.824;2022-09-30T00:28:25;9.70;;;6.18;;
9671;SDS011;4874;43.568;27.824;2022-09-30T00:30:52;9.07;;;5.72;;
9671;SDS011;4874;43.568;27.824;2022-09-30T00:33:20;9.57;;;6.15;;
9671;SDS011;4874;43.568;27.824;2022-09-30T00:35:46;11.15;;;6.00;;
9671;SDS011;4874;43.568;27.824;2022-09-30T00:38:13;7.20;;;4.80;;
9671;SDS011;4874;43.568;27.824;2022-09-30T00:40:40;8.05;;;5.25;;
9671;SDS011;4874;43.568;27.824;2022-09-30T00:43:14;8.23;;;6.10;;
9671;SDS011;4874;43.568;27.824;2022-09-30T00:45:45;7.25;;;5.57;;
9671;SDS011;4874;43.568;27.824;2022-09-30T00:48:19;8.50;;;5.70;;
9671;SDS011;4874;43.568;27.824;2022-09-30T00:50:57;12.73;;;6.28;;
9671;SDS011;4874;43.568;27.824;2022-09-30T00:53:26;9.02;;;5.72;;
9671;SDS011;4874;43.568;27.824;2022-09-30T00:55:57;7.82;;;6.18;;
9671;SDS011;4874;43.568;27.824;2022-09-30T01:01:00;7.97;;;5.40;;
9671;SDS011;4874;43.568;27.824;2022-09-30T01:03:32;6.57;;;5.22;;
9671;SDS011;4874;43.568;27.824;2022-09-30T01:06:01;7.72;;;5.82;;
9671;SDS011;4874;43.568;27.824;2022-09-30T01:08:29;8.07;;;5.82;;
9671;SDS011;4874;43.568;27.824;2022-09-30T01:10:59;8.65;;;5.72;;
9671;SDS011;4874;43.568;27.824;2022-09-30T01:13:29;8.77;;;5.63;;
9671;SDS011;4874;43.568;27.824;2022-09-30T01:19:04;7.10;;;4.75;;
9671;SDS011;4874;43.568;27.824;2022-09-30T01:24:43;7.28;;;5.00;;
9671;SDS011;4874;43.568;27.824;2022-09-30T01:32:56;7.60;;;4.82;;
9671;SDS011;4874;43.568;27.824;2022-09-30T01:41:16;8.00;;;5.93;;
9671;SDS011;4874;43.568;27.824;2022-09-30T01:46:40;7.68;;;5.22;;
9671;SDS011;4874;43.568;27.824;2022-09-30T01:52:08;9.93;;;5.28;;
9671;SDS011;4874;43.568;27.824;2022-09-30T01:54:44;6.57;;;5.65;;
9671;SDS011;4874;43.568;27.824;2022-09-30T01:59:53;6.00;;;5.05;;
9671;SDS011;4874;43.568;27.824;2022-09-30T02:02:29;7.45;;;5.43;;
9671;SDS011;4874;43.568;27.824;2022-09-30T02:05:00;7.68;;;5.95;;
9671;SDS011;4874;43.568;27.824;2022-09-30T02:07:35;6.78;;;4.82;;
9671;SDS011;4874;43.568;27.824;2022-09-30T02:12:51;9.20;;;4.72;;
9671;SDS011;4874;43.568;27.824;2022-09-30T02:15:24;9.50;;;5.05;;
9671;SDS011;4874;43.568;27.824;2022-09-30T02:17:59;8.45;;;5.35;;
9671;SDS011;4874;43.568;27.824;2022-09-30T02:20:31;7.85;;;5.30;;
9671;SDS011;4874;43.568;27.824;2022-09-30T02:23:03;7.57;;;4.40;;
9671;SDS011;4874;43.568;27.824;2022-09-30T02:25:38;7.68;;;5.53;;
9671;SDS011;4874;43.568;27.824;2022-09-30T02:28:11;7.78;;;4.68;;
9671;SDS011;4874;43.568;27.824;2022-09-30T02:30:44;8.18;;;5.68;;
9671;SDS011;4874;43.568;27.824;2022-09-30T02:33:16;8.55;;;5.43;;
9671;SDS011;4874;43.568;27.824;2022-09-30T02:35:51;10.77;;;6.22;;
9671;SDS011;4874;43.568;27.824;2022-09-30T02:38:27;8.88;;;5.30;;
9671;SDS011;4874;43.568;27.824;2022-09-30T02:41:06;8.45;;;4.88;;
9671;SDS011;4874;43.568;27.824;2022-09-30T02:43:37;9.10;;;5.78;;
9671;SDS011;4874;43.568;27.824;2022-09-30T02:48:58;8.60;;;5.30;;
9671;SDS011;4874;43.568;27.824;2022-09-30T02:51:37;8.07;;;6.00;;
9671;SDS011;4874;43.568;27.824;2022-09-30T02:54:18;8.27;;;5.07;;
9671;SDS011;4874;43.568;27.824;2022-09-30T03:00:07;8.55;;;5.97;;
9671;SDS011;4874;43.568;27.824;2022-09-30T03:02:38;9.35;;;5.15;;
9671;SDS011;4874;43.568;27.824;2022-09-30T03:05:05;8.35;;;5.43;;
9671;SDS011;4874;43.568;27.824;2022-09-30T03:07:33;7.63;;;5.63;;
9671;SDS011;4874;43.568;27.824;2022-09-30T03:10:00;9.20;;;5.63;;
9671;SDS011;4874;43.568;27.824;2022-09-30T03:12:56;10.83;;;7.03;;
9671;SDS011;4874;43.568;27.824;2022-09-30T03:15:48;10.57;;;6.75;;
9671;SDS011;4874;43.568;27.824;2022-09-30T03:26:35;9.77;;;6.25;;
9671;SDS011;4874;43.568;27.824;2022-09-30T03:31:42;13.35;;;6.80;;
9671;SDS011;4874;43.568;27.824;2022-09-30T03:34:31;9.25;;;6.82;;
9671;SDS011;4874;43.568;27.824;2022-09-30T03:37:24;10.65;;;5.70;;
9671;SDS011;4874;43.568;27.824;2022-09-30T03:40:03;13.18;;;6.85;;
9671;SDS011;4874;43.568;27.824;2022-09-30T03:42:43;9.30;;;6.57;;
9671;SDS011;4874;43.568;27.824;2022-09-30T03:45:17;9.18;;;6.25;;
9671;SDS011;4874;43.568;27.824;2022-09-30T03:48:07;6.90;;;5.47;;
9671;SDS011;4874;43.568;27.824;2022-09-30T03:50:36;10.65;;;6.13;;
9671;SDS011;4874;43.568;27.824;2022-09-30T03:53:09;8.10;;;6.43;;
9671;SDS011;4874;43.568;27.824;2022-09-30T03:55:47;9.27;;;5.22;;
9671;SDS011;4874;43.568;27.824;2022-09-30T03:58:16;8.38;;;5.20;;
9671;SDS011;4874;43.568;27.824;2022-09-30T04:00:46;10.13;;;5.50;;
9671;SDS011;4874;43.568;27.824;2022-09-30T04:03:15;10.23;;;6.70;;
9671;SDS011;4874;43.568;27.824;2022-09-30T04:05:43;9.77;;;6.22;;
9671;SDS011;4874;43.568;27.824;2022-09-30T04:08:10;10.95;;;7.05;;
9671;SDS011;4874;43.568;27.824;2022-09-30T04:10:40;8.55;;;6.05;;
9671;SDS011;4874;43.568;27.824;2022-09-30T04:13:08;9.68;;;5.90;;
9671;SDS011;4874;43.568;27.824;2022-09-30T04:15:35;9.23;;;5.38;;
9671;SDS011;4874;43.568;27.824;2022-09-30T04:18:02;12.50;;;6.70;;
9671;SDS011;4874;43.568;27.824;2022-09-30T04:20:30;9.15;;;5.68;;
9671;SDS011;4874;43.568;27.824;2022-09-30T04:22:57;10.45;;;7.30;;
9671;SDS011;4874;43.568;27.824;2022-09-30T04:25:26;12.02;;;6.65;;
9671;SDS011;4874;43.568;27.824;2022-09-30T04:27:53;11.13;;;6.35;;
9671;SDS011;4874;43.568;27.824;2022-09-30T04:30:21;9.75;;;6.00;;
9671;SDS011;4874;43.568;27.824;2022-09-30T04:32:51;9.25;;;7.00;;
9671;SDS011;4874;43.568;27.824;2022-09-30T04:35:18;12.63;;;8.18;;
9671;SDS011;4874;43.568;27.824;2022-09-30T04:37:45;12.98;;;7.03;;
9671;SDS011;4874;43.568;27.824;2022-09-30T04:40:13;11.80;;;7.07;;
9671;SDS011;4874;43.568;27.824;2022-09-30T04:42:41;11.25;;;7.80;;
9671;SDS011;4874;43.568;27.824;2022-09-30T04:45:09;9.68;;;6.10;;
9671;SDS011;4874;43.568;27.824;2022-09-30T04:47:36;11.68;;;7.25;;
9671;SDS011;4874;43.568;27.824;2022-09-30T04:50:04;13.30;;;7.53;;
9671;SDS011;4874;43.568;27.824;2022-09-30T04:52:31;13.52;;;6.90;;
9671;SDS011;4874;43.568;27.824;2022-09-30T04:54:57;11.68;;;6.28;;
9671;SDS011;4874;43.568;27.824;2022-09-30T04:57:24;14.70;;;8.98;;
9671;SDS011;4874;43.568;27.824;2022-09-30T04:59:52;11.13;;;7.10;;
9671;SDS011;4874;43.568;27.824;2022-09-30T05:02:19;11.25;;;7.07;;
9671;SDS011;4874;43.568;27.824;2022-09-30T05:04:45;10.10;;;7.00;;
9671;SDS011;4874;43.568;27.824;2022-09-30T05:07:12;12.30;;;6.93;;
9671;SDS011;4874;43.568;27.824;2022-09-30T05:09:39;11.77;;;6.47;;
9671;SDS011;4874;43.568;27.824;2022-09-30T05:12:05;10.90;;;6.43;;
9671;SDS011;4874;43.568;27.824;2022-09-30T05:14:32;11.50;;;6.35;;
9671;SDS011;4874;43.568;27.824;2022-09-30T05:16:59;10.98;;;5.97;;
9671;SDS011;4874;43.568;27.824;2022-09-30T05:19:27;15.38;;;6.85;;
9671;SDS011;4874;43.568;27.824;2022-09-30T05:21:55;11.23;;;6.68;;
9671;SDS011;4874;43.568;27.824;2022-09-30T05:24:21;9.55;;;6.93;;
9671;SDS011;4874;43.568;27.824;2022-09-30T05:26:48;16.00;;;8.30;;
9671;SDS011;4874;43.568;27.824;2022-09-30T05:29:15;11.98;;;6.50;;
9671;SDS011;4874;43.568;27.824;2022-09-30T05:31:42;9.40;;;6.50;;
9671;SDS011;4874;43.568;27.824;2022-09-30T05:34:09;14.15;;;7.78;;
9671;SDS011;4874;43.568;27.824;2022-09-30T05:36:36;10.48;;;6.88;;
9671;SDS011;4874;43.568;27.824;2022-09-30T05:39:02;11.75;;;6.88;;
9671;SDS011;4874;43.568;27.824;2022-09-30T05:41:30;14.02;;;6.60;;
9671;SDS011;4874;43.568;27.824;2022-09-30T05:43:56;15.85;;;8.20;;
9671;SDS011;4874;43.568;27.824;2022-09-30T05:46:26;12.95;;;6.90;;
9671;SDS011;4874;43.568;27.824;2022-09-30T05:48:53;13.95;;;7.65;;
9671;SDS011;4874;43.568;27.824;2022-09-30T05:51:20;17.13;;;9.50;;
9671;SDS011;4874;43.568;27.824;2022-09-30T05:53:47;13.27;;;8.90;;
9671;SDS011;4874;43.568;27.824;2022-09-30T05:56:14;16.70;;;10.27;;
9671;SDS011;4874;43.568;27.824;2022-09-30T05:58:40;13.63;;;10.48;;
9671;SDS011;4874;43.568;27.824;2022-09-30T06:01:08;16.05;;;10.07;;
9671;SDS011;4874;43.568;27.824;2022-09-30T06:03:39;18.10;;;11.30;;
9671;SDS011;4874;43.568;27.824;2022-09-30T06:06:06;26.70;;;16.35;;
9671;SDS011;4874;43.568;27.824;2022-09-30T06:08:33;19.50;;;14.20;;
9671;SDS011;4874;43.568;27.824;2022-09-30T06:11:00;14.15;;;9.10;;
9671;SDS011;4874;43.568;27.824;2022-09-30T06:13:27;18.55;;;10.15;;
9671;SDS011;4874;43.568;27.824;2022-09-30T06:15:55;24.10;;;11.05;;
9671;SDS011;4874;43.568;27.824;2022-09-30T06:18:23;15.00;;;9.35;;
9671;SDS011;4874;43.568;27.824;2022-09-30T06:20:56;17.73;;;8.95;;
9671;SDS011;4874;43.568;27.824;2022-09-30T06:23:23;11.10;;;7.63;;
9671;SDS011;4874;43.568;27.824;2022-09-30T06:25:50;13.40;;;10.13;;
9671;SDS011;4874;43.568;27.824;2022-09-30T06:28:18;15.70;;;7.55;;
9671;SDS011;4874;43.568;27.824;2022-09-30T06:30:45;16.60;;;8.85;;
9671;SDS011;4874;43.568;27.824;2022-09-30T06:33:13;14.05;;;7.57;;
9671;SDS011;4874;43.568;27.824;2022-09-30T06:35:40;13.80;;;7.28;;
9671;SDS011;4874;43.568;27.824;2022-09-30T06:38:08;10.25;;;5.53;;
9671;SDS011;4874;43.568;27.824;2022-09-30T06:40:35;12.30;;;6.63;;
9671;SDS011;4874;43.568;27.824;2022-09-30T06:43:02;12.48;;;6.43;;
9671;SDS011;4874;43.568;27.824;2022-09-30T06:45:30;9.25;;;4.75;;
9671;SDS011;4874;43.568;27.824;2022-09-30T06:47:58;11.85;;;5.57;;
9671;SDS011;4874;43.568;27.824;2022-09-30T06:50:26;6.60;;;4.00;;
9671;SDS011;4874;43.568;27.824;2022-09-30T06:53:01;7.93;;;3.75;;
9671;SDS011;4874;43.568;27.824;2022-09-30T06:55:31;8.32;;;3.65;;
9671;SDS011;4874;43.568;27.824;2022-09-30T06:57:58;43.40;;;28.10;;
9671;SDS011;4874;43.568;27.824;2022-09-30T07:00:25;8.75;;;3.40;;
9671;SDS011;4874;43.568;27.824;2022-09-30T07:02:54;7.03;;;4.05;;
9671;SDS011;4874;43.568;27.824;2022-09-30T07:05:22;6.97;;;2.05;;
9671;SDS011;4874;43.568;27.824;2022-09-30T07:07:51;8.43;;;2.88;;
9671;SDS011;4874;43.568;27.824;2022-09-30T07:10:19;7.20;;;2.55;;
9671;SDS011;4874;43.568;27.824;2022-09-30T07:12:49;4.72;;;3.00;;
9671;SDS011;4874;43.568;27.824;2022-09-30T07:15:17;8.07;;;3.67;;
9671;SDS011;4874;43.568;27.824;2022-09-30T07:17:53;7.65;;;2.90;;
9671;SDS011;4874;43.568;27.824;2022-09-30T07:20:22;4.38;;;2.38;;
9671;SDS011;4874;43.568;27.824;2022-09-30T07:22:48;3.58;;;1.73;;
9671;SDS011;4874;43.568;27.824;2022-09-30T07:25:15;3.20;;;1.65;;
9671;SDS011;4874;43.568;27.824;2022-09-30T07:27:43;5.70;;;2.50;;
9671;SDS011;4874;43.568;27.824;2022-09-30T07:30:10;4.32;;;2.72;;
9671;SDS011;4874;43.568;27.824;2022-09-30T07:32:45;17.63;;;11.82;;
9671;SDS011;4874;43.568;27.824;2022-09-30T07:35:12;7.53;;;3.45;;
9671;SDS011;4874;43.568;27.824;2022-09-30T07:37:39;6.05;;;2.42;;
9671;SDS011;4874;43.568;27.824;2022-09-30T07:40:06;3.95;;;1.58;;
9671;SDS011;4874;43.568;27.824;2022-09-30T07:42:35;4.97;;;2.60;;
9671;SDS011;4874;43.568;27.824;2022-09-30T07:45:04;6.10;;;1.88;;
9671;SDS011;4874;43.568;27.824;2022-09-30T07:47:31;9.10;;;1.60;;
9671;SDS011;4874;43.568;27.824;2022-09-30T07:49:58;4.22;;;2.22;;
9671;SDS011;4874;43.568;27.824;2022-09-30T07:52:25;10.00;;;2.63;;
9671;SDS011;4874;43.568;27.824;2022-09-30T07:54:52;6.10;;;1.73;;
9671;SDS011;4874;43.568;27.824;2022-09-30T07:57:19;7.60;;;1.50;;
9671;SDS011;4874;43.568;27.824;2022-09-30T07:59:46;2.95;;;1.40;;
9671;SDS011;4874;43.568;27.824;2022-09-30T08:02:14;4.60;;;1.42;;
9671;SDS011;4874;43.568;27.824;2022-09-30T08:04:42;5.53;;;1.70;;
9671;SDS011;4874;43.568;27.824;2022-09-30T08:07:10;3.78;;;1.50;;
9671;SDS011;4874;43.568;27.824;2022-09-30T08:09:38;7.10;;;1.67;;
9671;SDS011;4874;43.568;27.824;2022-09-30T08:12:05;4.75;;;1.85;;
9671;SDS011;4874;43.568;27.824;2022-09-30T08:14:32;4.72;;;2.10;;
9671;SDS011;4874;43.568;27.824;2022-09-30T08:16:58;5.32;;;1.83;;
9671;SDS011;4874;43.568;27.824;2022-09-30T08:19:26;6.43;;;2.30;;
9671;SDS011;4874;43.568;27.824;2022-09-30T08:21:55;5.68;;;2.33;;
9671;SDS011;4874;43.568;27.824;2022-09-30T08:24:23;8.90;;;3.38;;
9671;SDS011;4874;43.568;27.824;2022-09-30T08:26:51;17.92;;;13.77;;
9671;SDS011;4874;43.568;27.824;2022-09-30T08:29:18;7.03;;;2.13;;
9671;SDS011;4874;43.568;27.824;2022-09-30T08:32:04;3.35;;;2.00;;
9671;SDS011;4874;43.568;27.824;2022-09-30T08:34:31;4.25;;;2.50;;
9671;SDS011;4874;43.568;27.824;2022-09-30T08:37:01;6.47;;;3.05;;
9671;SDS011;4874;43.568;27.824;2022-09-30T08:39:32;3.35;;;2.08;;
9671;SDS011;4874;43.568;27.824;2022-09-30T08:42:05;6.13;;;2.50;;
9671;SDS011;4874;43.568;27.824;2022-09-30T08:45:07;7.40;;;2.58;;
9671;SDS011;4874;43.568;27.824;2022-09-30T08:53:00;11.10;;;2.42;;
9671;SDS011;4874;43.568;27.824;2022-09-30T08:55:41;4.97;;;2.10;;
9671;SDS011;4874;43.568;27.824;2022-09-30T08:58:14;5.32;;;2.00;;
9671;SDS011;4874;43.568;27.824;2022-09-30T09:00:54;4.95;;;1.92;;
9671;SDS011;4874;43.568;27.824;2022-09-30T09:03:45;5.07;;;2.30;;
9671;SDS011;4874;43.568;27.824;2022-09-30T09:09:05;4.85;;;1.98;;
9671;SDS011;4874;43.568;27.824;2022-09-30T09:22:43;9.23;;;2.67;;
9671;SDS011;4874;43.568;27.824;2022-09-30T09:25:12;5.32;;;2.72;;
9671;SDS011;4874;43.568;27.824;2022-09-30T09:30:23;4.40;;;2.60;;
9671;SDS011;4874;43.568;27.824;2022-09-30T09:33:20;4.97;;;2.80;;
9671;SDS011;4874;43.568;27.824;2022-09-30T09:36:05;6.88;;;3.80;;
9671;SDS011;4874;43.568;27.824;2022-09-30T09:38:53;6.15;;;3.42;;
9671;SDS011;4874;43.568;27.824;2022-09-30T09:41:28;3.78;;;2.60;;
9671;SDS011;4874;43.568;27.824;2022-09-30T09:47:00;10.05;;;3.35;;
9671;SDS011;4874;43.568;27.824;2022-09-30T09:49:32;4.80;;;2.67;;
9671;SDS011;4874;43.568;27.824;2022-09-30T09:57:09;5.53;;;3.40;;
9671;SDS011;4874;43.568;27.824;2022-09-30T09:59:52;6.53;;;3.00;;
9671;SDS011;4874;43.568;27.824;2022-09-30T10:02:21;9.75;;;2.75;;
9671;SDS011;4874;43.568;27.824;2022-09-30T10:04:52;5.80;;;2.90;;
9671;SDS011;4874;43.568;27.824;2022-09-30T10:07:30;5.82;;;2.65;;
9671;SDS011;4874;43.568;27.824;2022-09-30T10:10:15;4.65;;;2.38;;
9671;SDS011;4874;43.568;27.824;2022-09-30T10:12:48;6.75;;;4.32;;
9671;SDS011;4874;43.568;27.824;2022-09-30T10:15:19;5.45;;;2.72;;
9671;SDS011;4874;43.568;27.824;2022-09-30T10:17:51;6.05;;;2.80;;
9671;SDS011;4874;43.568;27.824;2022-09-30T10:20:30;6.15;;;3.45;;
9671;SDS011;4874;43.568;27.824;2022-09-30T10:22:59;4.88;;;2.67;;
9671;SDS011;4874;43.568;27.824;2022-09-30T10:25:28;4.28;;;2.60;;
9671;SDS011;4874;43.568;27.824;2022-09-30T10:27:57;4.53;;;2.80;;
9671;SDS011;4874;43.568;27.824;2022-09-30T10:30:50;5.35;;;3.45;;
9671;SDS011;4874;43.568;27.824;2022-09-30T10:36:03;6.60;;;2.55;;
9671;SDS011;4874;43.568;27.824;2022-09-30T10:38:43;8.05;;;4.47;;
9671;SDS011;4874;43.568;27.824;2022-09-30T10:41:13;4.88;;;2.40;;
9671;SDS011;4874;43.568;27.824;2022-09-30T10:43:50;9.63;;;2.77;;
9671;SDS011;4874;43.568;27.824;2022-09-30T10:46:23;8.82;;;3.47;;
9671;SDS011;4874;43.568;27.824;2022-09-30T10:48:54;14.82;;;3.38;;
9671;SDS011;4874;43.568;27.824;2022-09-30T10:51:24;25.77;;;4.50;;
9671;SDS011;4874;43.568;27.824;2022-09-30T10:53:54;5.25;;;2.63;;
9671;SDS011;4874;43.568;27.824;2022-09-30T10:56:32;6.47;;;2.85;;
9671;SDS011;4874;43.568;27.824;2022-09-30T10:59:04;10.95;;;3.28;;
9671;SDS011;4874;43.568;27.824;2022-09-30T11:01:48;6.07;;;2.63;;
9671;SDS011;4874;43.568;27.824;2022-09-30T11:04:36;11.55;;;3.42;;
9671;SDS011;4874;43.568;27.824;2022-09-30T11:09:50;6.05;;;3.17;;
9671;SDS011;4874;43.568;27.824;2022-09-30T11:18:14;3.97;;;2.90;;
9671;SDS011;4874;43.568;27.824;2022-09-30T11:21:05;6.43;;;2.72;;
9671;SDS011;4874;43.568;27.824;2022-09-30T11:23:44;3.90;;;2.88;;
9671;SDS011;4874;43.568;27.824;2022-09-30T11:29:52;5.75;;;3.35;;
9671;SDS011;4874;43.568;27.824;2022-09-30T11:32:19;4.15;;;2.90;;
9671;SDS011;4874;43.568;27.824;2022-09-30T11:59:25;6.60;;;2.90;;
9671;SDS011;4874;43.568;27.824;2022-09-30T12:01:57;7.43;;;2.70;;
9671;SDS011;4874;43.568;27.824;2022-09-30T12:04:37;4.57;;;2.53;;
9671;SDS011;4874;43.568;27.824;2022-09-30T12:07:15;4.88;;;2.70;;
9671;SDS011;4874;43.568;27.824;2022-09-30T12:09:50;6.07;;;3.05;;
9671;SDS011;4874;43.568;27.824;2022-09-30T12:12:23;4.78;;;3.00;;
9671;SDS011;4874;43.568;27.824;2022-09-30T12:14:50;3.85;;;2.40;;
9671;SDS011;4874;43.568;27.824;2022-09-30T12:17:36;5.72;;;2.90;;
9671;SDS011;4874;43.568;27.824;2022-09-30T12:20:19;11.00;;;3.17;;
9671;SDS011;4874;43.568;27.824;2022-09-30T12:22:53;6.22;;;2.60;;
9671;SDS011;4874;43.568;27.824;2022-09-30T12:25:38;7.75;;;3.35;;
9671;SDS011;4874;43.568;27.824;2022-09-30T12:28:13;4.35;;;3.17;;
9671;SDS011;4874;43.568;27.824;2022-09-30T12:39:34;7.45;;;2.60;;
9671;SDS011;4874;43.568;27.824;2022-09-30T12:42:11;7.05;;;2.53;;
9671;SDS011;4874;43.568;27.824;2022-09-30T12:47:54;7.88;;;2.53;;
9671;SDS011;4874;43.568;27.824;2022-09-30T12:50:27;5.85;;;2.50;;
9671;SDS011;4874;43.568;27.824;2022-09-30T12:53:07;4.50;;;2.67;;
9671;SDS011;4874;43.568;27.824;2022-09-30T12:55:41;6.97;;;2.83;;
9671;SDS011;4874;43.568;27.824;2022-09-30T12:58:42;4.13;;;2.95;;
9671;SDS011;4874;43.568;27.824;2022-09-30T13:07:03;5.80;;;2.80;;
9671;SDS011;4874;43.568;27.824;2022-09-30T13:14:35;5.88;;;3.10;;
9671;SDS011;4874;43.568;27.824;2022-09-30T13:19:50;2.90;;;2.10;;
9671;SDS011;4874;43.568;27.824;2022-09-30T13:30:38;6.60;;;2.80;;
9671;SDS011;4874;43.568;27.824;2022-09-30T13:33:26;5.32;;;3.00;;
9671;SDS011;4874;43.568;27.824;2022-09-30T13:35:56;3.72;;;2.25;;
9671;SDS011;4874;43.568;27.824;2022-09-30T13:38:38;3.35;;;2.55;;
9671;SDS011;4874;43.568;27.824;2022-09-30T13:41:21;3.72;;;2.17;;
9671;SDS011;4874;43.568;27.824;2022-09-30T13:43:58;5.85;;;2.05;;
9671;SDS011;4874;43.568;27.824;2022-09-30T13:46:34;7.35;;;2.38;;
9671;SDS011;4874;43.568;27.824;2022-09-30T13:49:14;4.15;;;2.40;;
9671;SDS011;4874;43.568;27.824;2022-09-30T13:51:46;8.38;;;3.42;;
9671;SDS011;4874;43.568;27.824;2022-09-30T13:54:29;4.55;;;2.20;;
9671;SDS011;4874;43.568;27.824;2022-09-30T13:57:13;5.70;;;2.38;;
9671;SDS011;4874;43.568;27.824;2022-09-30T14:04:55;7.10;;;2.70;;
9671;SDS011;4874;43.568;27.824;2022-09-30T14:13:50;4.32;;;2.50;;
9671;SDS011;4874;43.568;27.824;2022-09-30T14:16:53;3.97;;;2.42;;
9671;SDS011;4874;43.568;27.824;2022-09-30T14:22:19;3.20;;;2.05;;
9671;SDS011;4874;43.568;27.824;2022-09-30T14:24:51;4.70;;;2.25;;
9671;SDS011;4874;43.568;27.824;2022-09-30T14:27:29;6.68;;;3.47;;
9671;SDS011;4874;43.568;27.824;2022-09-30T14:30:10;7.95;;;3.28;;
9671;SDS011;4874;43.568;27.824;2022-09-30T14:32:46;9.80;;;3.58;;
9671;SDS011;4874;43.568;27.824;2022-09-30T14:35:27;8.05;;;3.80;;
9671;SDS011;4874;43.568;27.824;2022-09-30T14:38:16;5.85;;;3.78;;
9671;SDS011;4874;43.568;27.824;2022-09-30T14:40:51;5.50;;;3.65;;
9671;SDS011;4874;43.568;27.824;2022-09-30T14:43:21;7.53;;;3.10;;
9671;SDS011;4874;43.568;27.824;2022-09-30T14:45:50;9.30;;;3.75;;
9671;SDS011;4874;43.568;27.824;2022-09-30T14:48:26;7.47;;;3.50;;
9671;SDS011;4874;43.568;27.824;2022-09-30T14:51:10;8.02;;;3.90;;
9671;SDS011;4874;43.568;27.824;2022-09-30T14:53:40;7.25;;;3.95;;
9671;SDS011;4874;43.568;27.824;2022-09-30T14:56:27;6.57;;;3.30;;
9671;SDS011;4874;43.568;27.824;2022-09-30T14:58:56;9.65;;;4.75;;
9671;SDS011;4874;43.568;27.824;2022-09-30T15:01:42;5.70;;;3.10;;
9671;SDS011;4874;43.568;27.824;2022-09-30T15:04:14;6.38;;;3.90;;
9671;SDS011;4874;43.568;27.824;2022-09-30T15:06:48;9.57;;;3.47;;
9671;SDS011;4874;43.568;27.824;2022-09-30T15:09:24;9.27;;;3.53;;
9671;SDS011;4874;43.568;27.824;2022-09-30T15:11:54;6.47;;;3.40;;
9671;SDS011;4874;43.568;27.824;2022-09-30T15:14:21;8.13;;;3.30;;
9671;SDS011;4874;43.568;27.824;2022-09-30T15:16:50;7.25;;;3.97;;
9671;SDS011;4874;43.568;27.824;2022-09-30T15:19:30;8.48;;;3.75;;
9671;SDS011;4874;43.568;27.824;2022-09-30T15:22:02;9.18;;;3.45;;
9671;SDS011;4874;43.568;27.824;2022-09-30T15:24:31;9.00;;;3.28;;
9671;SDS011;4874;43.568;27.824;2022-09-30T15:26:59;4.72;;;3.10;;
9671;SDS011;4874;43.568;27.824;2022-09-30T15:29:28;8.57;;;3.40;;
9671;SDS011;4874;43.568;27.824;2022-09-30T15:31:59;10.30;;;3.60;;
9671;SDS011;4874;43.568;27.824;2022-09-30T15:34:29;8.77;;;3.33;;
9671;SDS011;4874;43.568;27.824;2022-09-30T15:36:59;6.57;;;3.80;;
9671;SDS011;4874;43.568;27.824;2022-09-30T15:39:44;9.20;;;3.25;;
9671;SDS011;4874;43.568;27.824;2022-09-30T15:42:38;6.90;;;2.97;;
9671;SDS011;4874;43.568;27.824;2022-09-30T15:45:27;6.22;;;3.28;;
9671;SDS011;4874;43.568;27.824;2022-09-30T15:48:04;11.27;;;3.75;;
9671;SDS011;4874;43.568;27.824;2022-09-30T15:50:42;6.25;;;3.15;;
9671;SDS011;4874;43.568;27.824;2022-09-30T15:55:57;6.88;;;3.72;;
9671;SDS011;4874;43.568;27.824;2022-09-30T16:00:52;7.78;;;3.60;;
9671;SDS011;4874;43.568;27.824;2022-09-30T16:03:34;9.98;;;2.90;;
9671;SDS011;4874;43.568;27.824;2022-09-30T16:06:05;6.15;;;3.00;;
9671;SDS011;4874;43.568;27.824;2022-09-30T16:08:46;6.88;;;2.80;;
9671;SDS011;4874;43.568;27.824;2022-09-30T16:11:19;7.10;;;3.42;;
9671;SDS011;4874;43.568;27.824;2022-09-30T16:13:50;9.93;;;4.07;;
9671;SDS011;4874;43.568;27.824;2022-09-30T16:16:18;6.97;;;4.45;;
9671;SDS011;4874;43.568;27.824;2022-09-30T16:18:51;11.77;;;4.50;;
9671;SDS011;4874;43.568;27.824;2022-09-30T16:26:50;6.88;;;3.40;;
9671;SDS011;4874;43.568;27.824;2022-09-30T16:29:18;8.73;;;3.30;;
9671;SDS011;4874;43.568;27.824;2022-09-30T16:31:47;5.88;;;2.85;;
9671;SDS011;4874;43.568;27.824;2022-09-30T16:37:04;8.20;;;3.05;;
9671;SDS011;4874;43.568;27.824;2022-09-30T16:39:36;6.95;;;3.40;;
9671;SDS011;4874;43.568;27.824;2022-09-30T16:42:03;6.45;;;3.35;;
9671;SDS011;4874;43.568;27.824;2022-09-30T16:44:30;6.82;;;3.05;;
9671;SDS011;4874;43.568;27.824;2022-09-30T16:47:00;7.10;;;2.50;;
9671;SDS011;4874;43.568;27.824;2022-09-30T16:49:27;4.75;;;2.40;;
9671;SDS011;4874;43.568;27.824;2022-09-30T16:51:54;4.40;;;2.60;;
9671;SDS011;4874;43.568;27.824;2022-09-30T16:54:21;6.70;;;3.45;;
9671;SDS011;4874;43.568;27.824;2022-09-30T16:56:47;7.05;;;2.88;;
9671;SDS011;4874;43.568;27.824;2022-09-30T16:59:15;7.15;;;2.85;;
9671;SDS011;4874;43.568;27.824;2022-09-30T17:01:43;8.50;;;2.80;;
9671;SDS011;4874;43.568;27.824;2022-09-30T17:04:10;5.13;;;2.45;;
9671;SDS011;4874;43.568;27.824;2022-09-30T17:06:39;6.05;;;2.58;;
9671;SDS011;4874;43.568;27.824;2022-09-30T17:09:05;8.30;;;2.63;;
9671;SDS011;4874;43.568;27.824;2022-09-30T17:11:33;6.93;;;3.15;;
9671;SDS011;4874;43.568;27.824;2022-09-30T17:14:01;6.72;;;2.65;;
9671;SDS011;4874;43.568;27.824;2022-09-30T17:16:29;6.15;;;2.83;;
9671;SDS011;4874;43.568;27.824;2022-09-30T17:18:57;6.30;;;2.80;;
9671;SDS011;4874;43.568;27.824;2022-09-30T17:21:24;11.30;;;3.33;;
9671;SDS011;4874;43.568;27.824;2022-09-30T17:23:52;5.25;;;2.95;;
9671;SDS011;4874;43.568;27.824;2022-09-30T17:26:20;7.65;;;2.92;;
9671;SDS011;4874;43.568;27.824;2022-09-30T17:28:46;7.45;;;3.28;;
9671;SDS011;4874;43.568;27.824;2022-09-30T17:31:13;7.95;;;3.05;;
9671;SDS011;4874;43.568;27.824;2022-09-30T17:33:40;8.77;;;3.00;;
9671;SDS011;4874;43.568;27.824;2022-09-30T17:36:08;8.45;;;3.33;;
9671;SDS011;4874;43.568;27.824;2022-09-30T17:38:36;5.07;;;2.42;;
9671;SDS011;4874;43.568;27.824;2022-09-30T17:41:04;5.90;;;3.00;;
9671;SDS011;4874;43.568;27.824;2022-09-30T17:43:50;8.85;;;3.25;;
9671;SDS011;4874;43.568;27.824;2022-09-30T17:46:17;8.90;;;3.70;;
9671;SDS011;4874;43.568;27.824;2022-09-30T17:48:46;11.55;;;4.95;;
9671;SDS011;4874;43.568;27.824;2022-09-30T17:51:14;10.70;;;4.82;;
9671;SDS011;4874;43.568;27.824;2022-09-30T17:53:44;11.35;;;3.00;;
9671;SDS011;4874;43.568;27.824;2022-09-30T17:56:14;6.53;;;3.78;;
9671;SDS011;4874;43.568;27.824;2022-09-30T17:58:45;7.57;;;3.80;;
9671;SDS011;4874;43.568;27.824;2022-09-30T18:01:14;10.23;;;3.85;;
9671;SDS011;4874;43.568;27.824;2022-09-30T18:03:42;9.02;;;3.88;;
9671;SDS011;4874;43.568;27.824;2022-09-30T18:06:11;11.93;;;5.50;;
9671;SDS011;4874;43.568;27.824;2022-09-30T18:08:39;11.95;;;5.22;;
9671;SDS011;4874;43.568;27.824;2022-09-30T18:11:06;7.93;;;3.88;;
9671;SDS011;4874;43.568;27.824;2022-09-30T18:13:33;9.38;;;4.47;;
9671;SDS011;4874;43.568;27.824;2022-09-30T18:16:03;7.63;;;3.53;;
9671;SDS011;4874;43.568;27.824;2022-09-30T18:18:30;6.95;;;3.67;;
9671;SDS011;4874;43.568;27.824;2022-09-30T18:20:59;8.60;;;4.35;;
9671;SDS011;4874;43.568;27.824;2022-09-30T18:23:26;8.10;;;3.63;;
9671;SDS011;4874;43.568;27.824;2022-09-30T18:25:53;9.85;;;4.15;;
9671;SDS011;4874;43.568;27.824;2022-09-30T18:28:21;8.80;;;3.95;;